Time;durP1;ratioP1;P1;durP2;ratioP2;P2;SDS_P1;SDS_P2;PMS_P1;PMS_P2;Temp;Humidity;BMP_temperature;BMP_pressure;BME280_temperature;BME280_humidity;BME280_pressure;Samples;Min_cycle;Max_cycle;Signal;HPM_P1;HPM_P2
2022/02/23 00:01:25;;;;;;;5.57;3.57;;;4.50;96.60;;;;;;4993902;28;20181;-75
2022/02/23 00:03:51;;;;;;;3.80;3.50;;;4.50;96.70;;;;;;4994857;28;20192;-74
2022/02/23 00:06:19;;;;;;;3.40;3.10;;;4.40;96.60;;;;;;4999707;28;21027;-75
2022/02/23 00:08:44;;;;;;;6.10;3.37;;;4.50;96.60;;;;;;4997521;28;20643;-75
2022/02/23 00:11:11;;;;;;;4.43;3.40;;;4.50;96.60;;;;;;4998515;28;20204;-75
2022/02/23 00:13:38;;;;;;;3.40;3.10;;;4.50;96.20;;;;;;4994958;28;20191;-75
2022/02/23 00:16:05;;;;;;;8.00;3.97;;;4.50;96.30;;;;;;4995327;28;20246;-75
2022/02/23 00:18:31;;;;;;;3.20;3.00;;;4.50;96.30;;;;;;4993929;28;20200;-75
2022/02/23 00:20:57;;;;;;;3.73;3.40;;;4.50;96.10;;;;;;4996399;28;20197;-75
2022/02/23 00:23:23;;;;;;;5.27;3.90;;;4.60;95.90;;;;;;4999465;28;20177;-74
2022/02/23 00:25:49;;;;;;;3.90;3.47;;;4.60;95.90;;;;;;4999408;28;20177;-75
2022/02/23 00:28:15;;;;;;;4.70;3.30;;;4.60;95.90;;;;;;4997928;28;20185;-76
2022/02/23 00:30:41;;;;;;;3.60;3.40;;;4.60;95.80;;;;;;4997076;28;20209;-75
2022/02/23 00:33:07;;;;;;;3.57;3.27;;;4.50;95.40;;;;;;4994218;28;20185;-75
2022/02/23 00:35:33;;;;;;;3.17;2.93;;;4.50;95.10;;;;;;4994262;28;20193;-75
2022/02/23 00:37:58;;;;;;;3.40;3.10;;;4.50;95.40;;;;;;4996114;28;20185;-75
2022/02/23 00:40:24;;;;;;;3.93;3.63;;;4.50;95.40;;;;;;5001752;28;20192;-75
2022/02/23 00:42:52;;;;;;;3.37;3.07;;;4.50;95.30;;;;;;4995837;28;20268;-74
2022/02/23 00:45:19;;;;;;;3.57;3.37;;;4.50;95.40;;;;;;4996184;28;20229;-75
2022/02/23 00:47:45;;;;;;;3.00;2.80;;;4.50;95.20;;;;;;4997091;28;20192;-75
2022/02/23 00:50:10;;;;;;;3.33;3.03;;;4.40;95.10;;;;;;4995232;28;20181;-74
2022/02/23 00:52:36;;;;;;;3.47;3.27;;;4.40;94.90;;;;;;5010124;28;20619;-74
2022/02/23 00:55:04;;;;;;;3.93;3.47;;;4.50;94.90;;;;;;4996658;28;20189;-74
2022/02/23 00:57:30;;;;;;;2.60;2.50;;;4.50;94.80;;;;;;4996214;28;20210;-75
2022/02/23 00:59:57;;;;;;;3.53;3.17;;;4.50;95.10;;;;;;4994372;28;20201;-75
2022/02/23 01:02:26;;;;;;;5.00;3.60;;;4.50;94.90;;;;;;4996397;28;20220;-73
2022/02/23 01:04:52;;;;;;;3.87;3.50;;;4.50;94.70;;;;;;4997367;28;20193;-74
2022/02/23 01:07:18;;;;;;;3.27;2.90;;;4.50;94.70;;;;;;4994596;28;20621;-75
2022/02/23 01:09:43;;;;;;;4.20;3.33;;;4.60;94.60;;;;;;4998405;28;20207;-74
2022/02/23 01:12:10;;;;;;;3.40;3.27;;;4.50;94.50;;;;;;4996125;28;20223;-74
2022/02/23 01:14:37;;;;;;;4.03;3.20;;;4.50;94.60;;;;;;4994165;28;20189;-75
2022/02/23 01:17:03;;;;;;;3.77;3.10;;;4.50;94.60;;;;;;4993897;28;20192;-74
2022/02/23 01:19:29;;;;;;;2.67;2.57;;;4.50;94.20;;;;;;4995391;28;20181;-75
2022/02/23 01:21:55;;;;;;;3.10;2.93;;;4.50;94.20;;;;;;4991678;28;20596;-75
2022/02/23 01:24:21;;;;;;;3.10;2.83;;;4.50;94.40;;;;;;4993556;28;20181;-75
2022/02/23 01:26:47;;;;;;;3.27;2.97;;;4.50;94.20;;;;;;5000114;28;20342;-75
2022/02/23 01:29:13;;;;;;;3.33;3.13;;;4.50;94.10;;;;;;4995704;28;20180;-75
2022/02/23 01:31:38;;;;;;;3.53;3.23;;;4.60;94.40;;;;;;4995777;28;20997;-75
2022/02/23 01:34:04;;;;;;;4.83;3.80;;;4.50;94.00;;;;;;4992132;28;20191;-75
2022/02/23 01:36:30;;;;;;;4.30;4.00;;;4.50;94.00;;;;;;4997611;28;20189;-76
2022/02/23 01:38:56;;;;;;;3.60;3.30;;;4.50;94.10;;;;;;4998758;28;20192;-76
2022/02/23 01:41:21;;;;;;;4.03;3.20;;;4.50;94.00;;;;;;4996070;28;20196;-76
2022/02/23 01:43:48;;;;;;;3.67;3.37;;;4.60;94.00;;;;;;4995960;28;20188;-76
2022/02/23 01:46:16;;;;;;;3.20;2.90;;;4.50;94.00;;;;;;4993837;28;20192;-76
2022/02/23 01:48:41;;;;;;;3.33;3.03;;;4.50;93.80;;;;;;4994924;28;20279;-76
2022/02/23 01:51:08;;;;;;;3.67;3.37;;;4.50;93.80;;;;;;4992440;28;20216;-76
2022/02/23 01:53:34;;;;;;;3.60;3.27;;;4.50;93.60;;;;;;4995785;28;20173;-75
2022/02/23 01:56:00;;;;;;;4.77;3.47;;;4.60;93.90;;;;;;4998782;28;20199;-76
2022/02/23 01:58:26;;;;;;;3.83;3.40;;;4.60;93.90;;;;;;4997634;28;20196;-75
2022/02/23 02:00:52;;;;;;;2.87;2.67;;;4.60;93.90;;;;;;4999596;28;20181;-75
2022/02/23 02:03:18;;;;;;;3.13;2.93;;;4.60;93.60;;;;;;4990868;28;20276;-75
2022/02/23 02:05:43;;;;;;;4.23;3.83;;;4.60;93.70;;;;;;4993476;28;20235;-76
2022/02/23 02:08:09;;;;;;;5.23;3.87;;;4.60;93.60;;;;;;4994997;28;20186;-75
2022/02/23 02:10:36;;;;;;;3.30;2.97;;;4.60;93.60;;;;;;4993402;28;20298;-76
2022/02/23 02:13:01;;;;;;;3.63;3.23;;;4.50;93.70;;;;;;4993130;28;20185;-75
2022/02/23 02:15:27;;;;;;;5.10;3.37;;;4.50;93.70;;;;;;4992541;28;20245;-76
2022/02/23 02:17:53;;;;;;;3.93;3.47;;;4.50;93.70;;;;;;4993121;28;20216;-75
2022/02/23 02:20:18;;;;;;;3.17;2.97;;;4.50;93.70;;;;;;4993033;28;20178;-76
2022/02/23 02:22:44;;;;;;;3.27;3.03;;;4.50;93.80;;;;;;4993401;28;20189;-76
2022/02/23 02:25:10;;;;;;;3.87;3.57;;;4.50;93.60;;;;;;4990945;28;20188;-76
2022/02/23 02:27:36;;;;;;;2.70;2.50;;;4.50;93.30;;;;;;4996090;28;20196;-76
2022/02/23 02:30:03;;;;;;;3.43;3.07;;;4.50;93.40;;;;;;4992018;28;20721;-76
2022/02/23 02:32:28;;;;;;;3.23;3.07;;;4.50;93.30;;;;;;4992523;28;20298;-75
2022/02/23 02:34:54;;;;;;;3.23;2.97;;;4.50;93.30;;;;;;4993033;28;20269;-74
2022/02/23 02:37:20;;;;;;;4.07;3.40;;;4.50;93.40;;;;;;4995930;28;20714;-74
2022/02/23 02:39:45;;;;;;;3.27;2.97;;;4.50;93.20;;;;;;4993711;28;20188;-75
2022/02/23 02:42:11;;;;;;;2.67;2.47;;;4.50;93.20;;;;;;4995975;28;20294;-75
2022/02/23 02:44:37;;;;;;;2.77;2.57;;;4.50;93.00;;;;;;4993562;28;20656;-75
2022/02/23 02:47:03;;;;;;;4.23;3.13;;;4.50;93.10;;;;;;4990073;28;20248;-75
2022/02/23 02:49:29;;;;;;;5.13;3.23;;;4.40;92.90;;;;;;4992303;28;20714;-75
2022/02/23 02:51:55;;;;;;;3.47;3.17;;;4.50;93.00;;;;;;4995665;28;20815;-75
2022/02/23 02:54:21;;;;;;;2.80;2.70;;;4.50;93.10;;;;;;4994329;28;20740;-75
2022/02/23 02:56:48;;;;;;;2.80;2.60;;;4.50;92.80;;;;;;4993994;28;20194;-75
2022/02/23 02:59:14;;;;;;;2.90;2.70;;;4.50;92.80;;;;;;4996080;28;20181;-75
2022/02/23 03:01:40;;;;;;;3.03;2.83;;;4.50;92.70;;;;;;5002517;28;20567;-75
2022/02/23 03:04:07;;;;;;;2.93;2.63;;;4.50;92.90;;;;;;4998194;28;20193;-75
2022/02/23 03:06:34;;;;;;;3.17;2.87;;;4.50;92.80;;;;;;4996607;28;20722;-75
2022/02/23 03:09:01;;;;;;;3.00;2.80;;;4.50;92.80;;;;;;4998857;28;20907;-78
2022/02/23 03:11:27;;;;;;;3.47;3.17;;;4.50;92.70;;;;;;4995259;28;20213;-74
2022/02/23 03:13:53;;;;;;;2.93;2.73;;;4.50;92.70;;;;;;4995089;28;20181;-77
2022/02/23 03:16:19;;;;;;;2.47;2.37;;;4.50;92.90;;;;;;5002727;28;20212;-74
2022/02/23 03:18:45;;;;;;;3.33;3.00;;;4.50;92.60;;;;;;4997342;28;20189;-74
2022/02/23 03:21:11;;;;;;;1.93;1.87;;;4.50;92.70;;;;;;4999783;28;20190;-74
2022/02/23 03:23:38;;;;;;;2.77;2.53;;;4.50;92.70;;;;;;4996051;28;20185;-74
2022/02/23 03:26:04;;;;;;;3.00;2.80;;;4.50;92.60;;;;;;5002144;28;20235;-74
2022/02/23 03:28:31;;;;;;;2.87;2.67;;;4.50;92.70;;;;;;4998044;28;20186;-74
2022/02/23 03:30:58;;;;;;;2.77;2.57;;;4.50;92.60;;;;;;4998117;28;20220;-75
2022/02/23 03:33:24;;;;;;;2.47;2.37;;;4.50;92.70;;;;;;5004235;28;20268;-75
2022/02/23 03:35:50;;;;;;;2.63;2.43;;;4.50;92.80;;;;;;4999515;28;20255;-75
2022/02/23 03:38:16;;;;;;;2.93;2.73;;;4.50;92.70;;;;;;4996587;28;20182;-75
2022/02/23 03:40:42;;;;;;;2.53;2.33;;;4.50;92.50;;;;;;5001361;28;20348;-75
2022/02/23 03:43:09;;;;;;;2.63;2.43;;;4.50;92.60;;;;;;4998234;28;20218;-74
2022/02/23 03:45:35;;;;;;;2.83;2.63;;;4.60;92.60;;;;;;5001781;28;20678;-74
2022/02/23 03:48:01;;;;;;;4.17;2.90;;;4.60;92.70;;;;;;4999171;28;20228;-75
2022/02/23 03:50:27;;;;;;;2.53;2.23;;;4.60;92.50;;;;;;4998982;28;20217;-75
2022/02/23 03:52:54;;;;;;;2.37;2.17;;;4.60;92.40;;;;;;4997175;28;20220;-75
2022/02/23 03:55:20;;;;;;;2.43;2.33;;;4.60;92.40;;;;;;4998677;28;20193;-75
2022/02/23 03:57:46;;;;;;;2.80;2.70;;;4.60;92.40;;;;;;4998672;28;20542;-76
2022/02/23 04:00:14;;;;;;;2.80;2.60;;;4.50;91.90;;;;;;4992450;28;20184;-76
2022/02/23 04:02:41;;;;;;;2.77;2.53;;;4.50;92.30;;;;;;4993990;28;20185;-76
2022/02/23 04:05:07;;;;;;;4.23;2.97;;;4.50;92.40;;;;;;4996131;28;20264;-76
2022/02/23 04:07:34;;;;;;;2.60;2.50;;;4.50;92.40;;;;;;4998273;28;20192;-76
2022/02/23 04:10:00;;;;;;;2.80;2.60;;;4.60;92.30;;;;;;4999084;28;20181;-76
2022/02/23 04:12:26;;;;;;;3.83;3.47;;;4.50;92.20;;;;;;4994529;28;20215;-75
2022/02/23 04:14:52;;;;;;;3.07;2.87;;;4.50;92.30;;;;;;4997082;28;20193;-75
2022/02/23 04:17:18;;;;;;;2.33;2.13;;;4.50;92.30;;;;;;4999980;28;20238;-75
2022/02/23 04:19:43;;;;;;;2.93;2.60;;;4.50;92.30;;;;;;4999519;28;20185;-75
2022/02/23 04:22:09;;;;;;;2.33;2.23;;;4.50;92.40;;;;;;4995883;28;20331;-74
2022/02/23 04:24:35;;;;;;;2.27;2.17;;;4.50;92.30;;;;;;4998462;28;20185;-75
2022/02/23 04:27:01;;;;;;;2.63;2.53;;;4.50;92.40;;;;;;4997396;28;20188;-75
2022/02/23 04:29:28;;;;;;;3.23;2.57;;;4.50;92.40;;;;;;4995090;28;20185;-76
2022/02/23 04:31:53;;;;;;;2.87;2.77;;;4.50;92.40;;;;;;4997315;28;20722;-75
2022/02/23 04:34:20;;;;;;;2.20;2.10;;;4.50;92.50;;;;;;4998447;28;20268;-75
2022/02/23 04:36:46;;;;;;;3.00;2.83;;;4.50;92.60;;;;;;4999853;28;20652;-76
2022/02/23 04:39:12;;;;;;;3.37;3.07;;;4.50;92.50;;;;;;5000081;28;20178;-76
2022/02/23 04:41:38;;;;;;;3.20;2.50;;;4.50;92.50;;;;;;5000056;28;20189;-75
2022/02/23 04:44:06;;;;;;;2.87;2.63;;;4.50;92.60;;;;;;4995545;28;20741;-75
2022/02/23 04:46:32;;;;;;;2.80;2.60;;;4.50;92.60;;;;;;4991986;28;20200;-75
2022/02/23 04:48:58;;;;;;;4.03;3.50;;;4.50;92.60;;;;;;4996658;28;20194;-75
2022/02/23 04:51:25;;;;;;;2.63;2.43;;;4.50;92.60;;;;;;4996615;28;20217;-75
2022/02/23 04:53:52;;;;;;;6.07;2.67;;;4.50;92.50;;;;;;4996487;28;20959;-75
2022/02/23 04:56:18;;;;;;;2.70;2.53;;;4.50;92.50;;;;;;4997347;28;20192;-75
2022/02/23 04:58:44;;;;;;;3.17;2.87;;;4.40;92.30;;;;;;4998712;28;20184;-75
2022/02/23 05:01:11;;;;;;;3.23;2.97;;;4.40;92.30;;;;;;4994557;28;20260;-75
2022/02/23 05:03:36;;;;;;;3.37;2.93;;;4.40;92.40;;;;;;4996050;28;20178;-76
2022/02/23 05:06:02;;;;;;;2.87;2.67;;;4.40;92.20;;;;;;4994189;28;20217;-76
2022/02/23 05:08:28;;;;;;;2.87;2.70;;;4.30;92.40;;;;;;4997360;28;20185;-75
2022/02/23 05:10:57;;;;;;;2.73;2.53;;;4.30;92.40;;;;;;4996019;28;20217;-76
2022/02/23 05:13:25;;;;;;;3.40;3.10;;;4.30;92.40;;;;;;4996740;28;20246;-76
2022/02/23 05:15:56;;;;;;;3.03;2.83;;;4.30;92.60;;;;;;4996895;28;20606;-75
2022/02/23 05:18:23;;;;;;;3.83;3.53;;;4.30;92.50;;;;;;4995612;28;20192;-75
2022/02/23 05:20:49;;;;;;;2.77;2.60;;;4.20;92.60;;;;;;4995346;28;20219;-76
2022/02/23 05:23:16;;;;;;;2.80;2.53;;;4.20;92.30;;;;;;4999441;28;20184;-75
2022/02/23 05:25:42;;;;;;;2.77;2.57;;;4.20;92.30;;;;;;4998254;28;20193;-74
2022/02/23 05:28:07;;;;;;;3.50;2.60;;;4.20;92.20;;;;;;4991397;28;20606;-75
2022/02/23 05:30:33;;;;;;;6.77;3.03;;;4.30;92.30;;;;;;4993461;28;20189;-75
2022/02/23 05:32:59;;;;;;;6.70;3.07;;;4.30;92.30;;;;;;4991527;28;20737;-74
2022/02/23 05:35:25;;;;;;;4.23;3.27;;;4.20;91.90;;;;;;4995236;28;20180;-74
2022/02/23 05:37:51;;;;;;;3.13;2.80;;;4.20;92.30;;;;;;4995574;28;20765;-75
2022/02/23 05:40:17;;;;;;;4.10;2.83;;;4.20;92.30;;;;;;4988549;28;20181;-75
2022/02/23 05:42:43;;;;;;;5.10;2.93;;;4.20;92.20;;;;;;4999635;28;20184;-74
2022/02/23 05:45:09;;;;;;;5.87;3.37;;;4.20;92.20;;;;;;4993878;28;20800;-75
2022/02/23 05:47:35;;;;;;;2.83;2.63;;;4.30;92.10;;;;;;4993924;28;20692;-75
2022/02/23 05:50:01;;;;;;;3.40;3.20;;;4.30;92.00;;;;;;4996375;28;20188;-75
2022/02/23 05:52:26;;;;;;;3.50;2.97;;;4.30;91.90;;;;;;4993654;28;20228;-75
2022/02/23 05:54:52;;;;;;;9.90;3.90;;;4.30;91.80;;;;;;4996213;28;20177;-76
2022/02/23 05:57:21;;;;;;;6.30;2.97;;;4.20;91.60;;;;;;4993247;28;20188;-76
2022/02/23 05:59:48;;;;;;;3.13;2.80;;;4.20;91.90;;;;;;4995255;28;20216;-76
2022/02/23 06:02:14;;;;;;;2.73;2.37;;;4.20;91.80;;;;;;4996689;28;20227;-73
2022/02/23 06:04:40;;;;;;;3.10;2.90;;;4.20;91.60;;;;;;4997199;28;20181;-79
2022/02/23 06:07:06;;;;;;;3.30;3.00;;;4.30;91.80;;;;;;4995405;28;20862;-75
2022/02/23 06:09:32;;;;;;;3.37;3.03;;;4.30;91.70;;;;;;4995689;28;20655;-74
2022/02/23 06:11:59;;;;;;;3.40;3.10;;;4.30;91.60;;;;;;4993223;28;21158;-74
2022/02/23 06:14:26;;;;;;;3.83;2.47;;;4.30;91.70;;;;;;5002165;28;20177;-77
2022/02/23 06:16:52;;;;;;;4.20;3.30;;;4.30;91.50;;;;;;4993286;28;20186;-76
2022/02/23 06:19:18;;;;;;;3.13;2.93;;;4.30;91.50;;;;;;4997576;28;20228;-74
2022/02/23 06:21:43;;;;;;;3.37;3.07;;;4.20;91.30;;;;;;4993520;28;20769;-74
2022/02/23 06:24:09;;;;;;;3.03;2.73;;;4.20;91.40;;;;;;4994033;28;20192;-74
2022/02/23 06:26:35;;;;;;;3.07;2.83;;;4.20;91.40;;;;;;4998264;28;20741;-75
2022/02/23 06:29:01;;;;;;;3.70;3.40;;;4.20;91.30;;;;;;4993639;28;20287;-74
2022/02/23 06:31:26;;;;;;;3.77;3.07;;;4.10;91.40;;;;;;4990689;28;20341;-72
2022/02/23 06:33:52;;;;;;;3.40;3.20;;;4.20;91.70;;;;;;4991834;28;20239;-74
2022/02/23 06:36:19;;;;;;;2.80;2.70;;;4.20;91.80;;;;;;4996951;28;21030;-74
2022/02/23 06:38:45;;;;;;;3.83;3.23;;;4.20;91.60;;;;;;4996397;28;20208;-75
2022/02/23 06:41:14;;;;;;;3.40;3.03;;;4.20;91.50;;;;;;4992216;28;20189;-73
2022/02/23 06:43:42;;;;;;;3.80;3.07;;;4.20;91.70;;;;;;4989832;28;20197;-75
2022/02/23 06:46:08;;;;;;;3.63;2.93;;;4.20;91.80;;;;;;4995777;28;20193;-75
2022/02/23 06:48:36;;;;;;;5.53;3.30;;;4.20;92.20;;;;;;4994468;28;20568;-73
2022/02/23 06:51:02;;;;;;;2.23;2.13;;;4.10;91.80;;;;;;4996870;28;20339;-74
2022/02/23 06:53:28;;;;;;;2.77;2.57;;;4.00;91.80;;;;;;4993802;28;20598;-75
2022/02/23 06:55:54;;;;;;;4.57;2.73;;;4.00;91.90;;;;;;4989462;28;20293;-74
2022/02/23 06:58:20;;;;;;;3.20;2.97;;;4.00;92.40;;;;;;4992825;28;20264;-74
2022/02/23 07:00:46;;;;;;;2.47;2.33;;;3.90;92.40;;;;;;4996368;28;20557;-74
2022/02/23 07:03:12;;;;;;;1.67;1.63;;;3.90;92.30;;;;;;4988639;28;20228;-74
2022/02/23 07:05:38;;;;;;;2.23;1.53;;;3.90;92.30;;;;;;4999755;28;20192;-75
2022/02/23 07:08:08;;;;;;;2.33;2.13;;;3.90;92.30;;;;;;4992573;28;20185;-75
2022/02/23 07:10:34;;;;;;;2.60;2.40;;;3.90;92.30;;;;;;4994127;28;20216;-74
2022/02/23 07:13:04;;;;;;;2.23;2.03;;;3.90;92.40;;;;;;4995727;28;20224;-75
2022/02/23 07:15:30;;;;;;;2.30;2.17;;;3.90;92.30;;;;;;4998075;28;20189;-75
2022/02/23 07:17:56;;;;;;;2.30;2.20;;;3.90;92.40;;;;;;4992347;28;20193;-75
2022/02/23 07:20:22;;;;;;;2.73;2.57;;;3.90;92.60;;;;;;4991936;28;20258;-75
2022/02/23 07:22:49;;;;;;;2.57;2.20;;;4.00;92.70;;;;;;4996821;28;20219;-74
2022/02/23 07:25:15;;;;;;;3.03;2.93;;;4.10;92.70;;;;;;4992162;28;20268;-75
2022/02/23 07:27:41;;;;;;;2.90;2.70;;;4.10;92.70;;;;;;4988918;28;20991;-75
2022/02/23 07:30:11;;;;;;;2.07;1.97;;;4.10;92.50;;;;;;4992140;28;20194;-75
2022/02/23 07:32:37;;;;;;;2.83;2.60;;;4.20;92.50;;;;;;4993340;28;20236;-75
2022/02/23 07:35:04;;;;;;;2.90;2.33;;;4.30;92.40;;;;;;4991247;28;20185;-75
2022/02/23 07:37:30;;;;;;;3.30;2.77;;;4.30;92.00;;;;;;4993811;28;20221;-75
2022/02/23 07:40:05;;;;;;;5.33;2.40;;;4.40;92.00;;;;;;4986961;28;20212;-75
2022/02/23 07:42:31;;;;;;;3.00;2.77;;;4.40;91.60;;;;;;4990592;28;20268;-75
2022/02/23 07:44:56;;;;;;;2.33;2.23;;;4.60;91.80;;;;;;4992746;28;20189;-75
2022/02/23 07:47:22;;;;;;;2.37;2.17;;;4.70;91.40;;;;;;4993144;28;20188;-75
2022/02/23 07:49:49;;;;;;;2.40;2.20;;;4.70;91.30;;;;;;4997634;28;20188;-75
2022/02/23 07:52:16;;;;;;;2.63;2.53;;;4.90;91.30;;;;;;4994425;28;20201;-75
2022/02/23 07:54:42;;;;;;;2.63;2.40;;;5.00;90.40;;;;;;4987608;28;20790;-76
2022/02/23 07:57:08;;;;;;;2.57;2.37;;;5.00;89.90;;;;;;4994129;28;20275;-76
2022/02/23 07:59:33;;;;;;;3.83;3.10;;;5.00;89.80;;;;;;4990051;28;20572;-75
2022/02/23 08:02:00;;;;;;;3.37;3.07;;;5.00;89.90;;;;;;4995387;28;20272;-75
2022/02/23 08:04:26;;;;;;;3.73;3.53;;;5.00;89.80;;;;;;5010845;28;20247;-75
2022/02/23 08:06:51;;;;;;;3.07;2.87;;;5.10;89.80;;;;;;4996005;28;20188;-75
2022/02/23 08:09:17;;;;;;;4.43;2.87;;;5.10;89.80;;;;;;4992935;28;20201;-74
2022/02/23 08:11:43;;;;;;;2.33;2.20;;;5.20;89.40;;;;;;4996432;28;20228;-75
2022/02/23 08:14:11;;;;;;;3.07;2.90;;;5.20;88.90;;;;;;4996777;28;20189;-75
2022/02/23 08:19:36;;;;;;;4.87;3.13;;;5.20;88.80;;;;;;4996672;28;20758;-74
2022/02/23 08:22:05;;;;;;;3.27;2.60;;;5.20;88.90;;;;;;4993088;28;20271;-74
2022/02/23 08:24:34;;;;;;;2.80;2.60;;;5.20;88.40;;;;;;4996575;28;20605;-75
2022/02/23 08:27:01;;;;;;;2.83;2.33;;;5.20;87.80;;;;;;4996022;28;20185;-74
2022/02/23 08:29:27;;;;;;;2.53;2.33;;;5.30;88.10;;;;;;5011291;28;20820;-75
2022/02/23 08:31:53;;;;;;;3.73;2.83;;;5.50;88.30;;;;;;4998019;28;20215;-74
2022/02/23 08:34:20;;;;;;;2.53;2.30;;;5.70;87.60;;;;;;4993736;28;20667;-74
2022/02/23 08:36:47;;;;;;;3.20;2.77;;;5.80;87.10;;;;;;4995327;28;20267;-74
2022/02/23 08:39:15;;;;;;;4.20;2.70;;;5.90;86.60;;;;;;5012865;28;20687;-74
2022/02/23 08:41:41;;;;;;;4.57;3.20;;;6.10;86.40;;;;;;5010739;28;20181;-74
2022/02/23 08:44:07;;;;;;;3.33;3.13;;;6.10;85.40;;;;;;5000877;28;20185;-74
2022/02/23 08:46:43;;;;;;;3.53;3.20;;;6.20;85.10;;;;;;4997429;28;20193;-75
2022/02/23 08:49:10;;;;;;;3.50;2.70;;;6.30;84.20;;;;;;4992629;28;20236;-74
2022/02/23 08:51:39;;;;;;;2.80;2.60;;;6.50;84.70;;;;;;4996744;28;20216;-74
2022/02/23 08:54:05;;;;;;;2.93;2.70;;;6.80;85.60;;;;;;4996282;28;20193;-74
2022/02/23 08:56:32;;;;;;;3.80;3.50;;;7.30;83.10;;;;;;4997346;28;20189;-75
2022/02/23 08:58:58;;;;;;;6.00;4.00;;;7.60;82.00;;;;;;4994589;28;20207;-75
2022/02/23 09:01:25;;;;;;;3.90;3.60;;;7.90;81.10;;;;;;4993858;28;20663;-75
2022/02/23 09:03:51;;;;;;;4.83;3.70;;;8.20;80.10;;;;;;5000210;28;20709;-74
2022/02/23 09:06:18;;;;;;;2.83;2.70;;;8.30;79.10;;;;;;4995511;28;20193;-75
2022/02/23 09:08:44;;;;;;;3.60;3.30;;;8.60;79.10;;;;;;4997381;28;20231;-75
2022/02/23 09:11:12;;;;;;;3.13;2.93;;;8.90;78.20;;;;;;4999228;28;20235;-74
2022/02/23 09:13:38;;;;;;;2.67;2.57;;;9.10;77.20;;;;;;5012563;28;20196;-74
2022/02/23 09:16:05;;;;;;;2.77;2.60;;;9.10;75.90;;;;;;4998072;28;20192;-74
2022/02/23 09:18:31;;;;;;;3.50;3.20;;;9.00;75.60;;;;;;4997079;28;20185;-74
2022/02/23 09:20:56;;;;;;;3.80;3.60;;;8.70;75.70;;;;;;4994301;28;20201;-74
2022/02/23 09:23:22;;;;;;;3.43;3.23;;;8.50;76.70;;;;;;4998128;28;20679;-75
2022/02/23 09:25:48;;;;;;;4.03;3.23;;;8.30;76.80;;;;;;5000495;28;20683;-73
2022/02/23 09:28:14;;;;;;;4.47;2.97;;;8.10;77.20;;;;;;4999988;28;20217;-75
2022/02/23 09:30:40;;;;;;;3.60;3.30;;;8.00;78.20;;;;;;4998059;28;20219;-74
2022/02/23 09:33:06;;;;;;;4.60;3.10;;;7.80;78.80;;;;;;4993799;28;20228;-75
2022/02/23 09:35:33;;;;;;;3.07;2.87;;;7.80;79.60;;;;;;4995401;28;20327;-73
2022/02/23 09:37:59;;;;;;;3.67;3.37;;;7.80;79.70;;;;;;4995408;28;20192;-73
2022/02/23 09:40:24;;;;;;;7.63;3.20;;;7.70;79.20;;;;;;5001025;28;20177;-75
2022/02/23 09:42:50;;;;;;;3.13;2.90;;;7.60;79.50;;;;;;4995166;28;20683;-73
2022/02/23 09:45:17;;;;;;;3.40;3.10;;;7.60;80.30;;;;;;4996558;28;20201;-74
2022/02/23 09:47:43;;;;;;;3.30;3.00;;;7.70;80.30;;;;;;4998947;28;20184;-74
2022/02/23 09:50:21;;;;;;;3.77;3.37;;;7.80;80.20;;;;;;4992942;28;20292;-75
2022/02/23 09:52:51;;;;;;;4.60;3.40;;;7.90;80.00;;;;;;4994000;28;20217;-74
2022/02/23 09:55:20;;;;;;;5.47;3.20;;;7.80;79.60;;;;;;5002311;28;20217;-74
2022/02/23 09:57:47;;;;;;;4.63;3.60;;;7.70;80.00;;;;;;4997316;28;20235;-74
2022/02/23 10:00:13;;;;;;;4.03;3.57;;;7.70;80.00;;;;;;5003681;28;20185;-74
2022/02/23 10:02:39;;;;;;;3.13;2.90;;;7.70;79.70;;;;;;4997384;28;21117;-73
2022/02/23 10:05:06;;;;;;;3.33;2.80;;;7.60;79.50;;;;;;4996781;28;20182;-74
2022/02/23 10:07:38;;;;;;;3.07;2.73;;;7.50;79.40;;;;;;4996935;28;20280;-74
2022/02/23 10:10:08;;;;;;;3.20;2.20;;;7.40;79.20;;;;;;4996266;28;20241;-74
2022/02/23 10:12:35;;;;;;;3.40;3.20;;;7.30;79.40;;;;;;5000765;28;20208;-74
2022/02/23 10:15:16;;;;;;;2.83;2.63;;;7.30;79.60;;;;;;4999558;28;20260;-74
2022/02/23 10:17:51;;;;;;;2.83;2.60;;;7.30;79.30;;;;;;5000957;28;20655;-75
2022/02/23 10:20:36;;;;;;;3.57;3.00;;;7.40;79.40;;;;;;4998300;28;20346;-74
2022/02/23 10:23:07;;;;;;;5.43;3.67;;;7.50;79.50;;;;;;4998497;28;20199;-74
2022/02/23 10:25:42;;;;;;;2.73;2.53;;;7.60;79.30;;;;;;5000081;28;20539;-75
2022/02/23 10:28:09;;;;;;;2.87;2.67;;;7.60;78.60;;;;;;4994353;28;20253;-75
2022/02/23 10:30:36;;;;;;;2.90;2.67;;;7.70;78.50;;;;;;4988535;28;20224;-75
2022/02/23 10:33:22;;;;;;;3.80;3.33;;;7.70;78.90;;;;;;4991494;28;20245;-74
2022/02/23 10:35:57;;;;;;;2.27;2.17;;;7.80;78.50;;;;;;4998871;28;20181;-74
2022/02/23 10:38:37;;;;;;;2.87;2.40;;;7.90;77.60;;;;;;5002216;28;20238;-74
2022/02/23 10:41:06;;;;;;;3.23;2.87;;;8.00;76.80;;;;;;4993861;28;20197;-74
2022/02/23 10:43:40;;;;;;;3.43;2.10;;;7.90;76.50;;;;;;4999737;28;20659;-74
2022/02/23 10:46:13;;;;;;;1.77;1.67;;;8.00;76.80;;;;;;4993224;28;20579;-75
2022/02/23 10:48:50;;;;;;;2.03;1.93;;;8.00;76.20;;;;;;4991429;28;20209;-73
2022/02/23 10:51:29;;;;;;;1.83;1.73;;;8.00;76.30;;;;;;4991955;28;20734;-74
2022/02/23 10:54:20;;;;;;;3.03;2.70;;;8.00;76.60;;;;;;4995453;28;20302;-74
2022/02/23 10:56:45;;;;;;;2.30;2.20;;;8.20;76.40;;;;;;4994929;28;20212;-75
2022/02/23 10:59:19;;;;;;;2.10;1.63;;;8.30;76.30;;;;;;4998078;28;21156;-75
2022/02/23 11:01:47;;;;;;;3.13;2.33;;;8.50;75.30;;;;;;5000795;28;20208;-74
2022/02/23 11:04:13;;;;;;;2.10;1.93;;;8.50;74.40;;;;;;4994961;28;20271;-75
2022/02/23 11:06:42;;;;;;;3.07;2.30;;;8.60;74.70;;;;;;4991273;28;20185;-74
2022/02/23 11:09:09;;;;;;;2.40;2.30;;;8.70;74.40;;;;;;4995133;28;20195;-75
2022/02/23 11:11:35;;;;;;;2.47;2.37;;;8.70;74.90;;;;;;4996093;28;20598;-75
2022/02/23 11:14:01;;;;;;;3.00;2.53;;;8.90;74.70;;;;;;4991514;28;20694;-75
2022/02/23 11:16:29;;;;;;;2.33;2.17;;;9.00;74.60;;;;;;4991321;28;20182;-74
2022/02/23 11:19:00;;;;;;;2.83;2.63;;;9.00;73.90;;;;;;4997082;28;20185;-75
2022/02/23 11:21:33;;;;;;;2.53;2.33;;;9.10;73.60;;;;;;4994192;28;20196;-74
2022/02/23 11:24:02;;;;;;;7.37;2.70;;;9.20;73.40;;;;;;4991545;28;20335;-74
2022/02/23 11:26:32;;;;;;;1.93;1.90;;;9.30;73.30;;;;;;5002221;28;20181;-72
2022/02/23 11:29:23;;;;;;;1.80;1.70;;;9.40;72.50;;;;;;5015602;28;20923;-73
2022/02/23 11:31:53;;;;;;;1.77;1.73;;;9.40;72.40;;;;;;4994596;28;20622;-75
2022/02/23 11:34:22;;;;;;;1.97;1.87;;;9.40;72.40;;;;;;4998903;28;20205;-74
2022/02/23 11:36:49;;;;;;;4.07;2.27;;;9.40;72.20;;;;;;5004107;28;20211;-74
2022/02/23 11:39:19;;;;;;;1.93;1.37;;;9.40;72.60;;;;;;4998217;28;20668;-75
2022/02/23 11:41:56;;;;;;;2.50;1.93;;;9.50;72.60;;;;;;5003598;28;20176;-75
2022/02/23 11:44:31;;;;;;;2.17;1.87;;;9.50;72.40;;;;;;5000259;28;20220;-75
2022/02/23 11:46:58;;;;;;;1.67;1.57;;;9.30;71.60;;;;;;5011832;28;20228;-74
2022/02/23 11:49:26;;;;;;;2.10;2.07;;;9.20;72.10;;;;;;5002294;28;20189;-74
2022/02/23 11:52:11;;;;;;;2.50;2.03;;;9.10;72.60;;;;;;5002493;28;20228;-74
2022/02/23 11:55:05;;;;;;;1.50;1.40;;;9.10;72.70;;;;;;5001065;28;20244;-74
2022/02/23 11:57:49;;;;;;;1.70;1.60;;;9.00;72.40;;;;;;4996623;28;20197;-74
2022/02/23 12:00:23;;;;;;;1.40;1.40;;;8.80;72.40;;;;;;4996249;28;20236;-74
2022/02/23 12:03:02;;;;;;;1.80;1.70;;;8.70;72.60;;;;;;4992517;28;20177;-74
2022/02/23 12:05:42;;;;;;;2.30;2.10;;;8.60;72.70;;;;;;4995353;28;20251;-73
2022/02/23 12:08:34;;;;;;;1.90;1.77;;;8.60;73.30;;;;;;5001858;28;20188;-73
2022/02/23 12:11:23;;;;;;;1.87;1.77;;;8.60;73.50;;;;;;4980467;28;20189;-75
2022/02/23 12:13:49;;;;;;;3.03;1.47;;;8.60;73.60;;;;;;4980112;28;20590;-74
2022/02/23 12:16:28;;;;;;;1.87;1.77;;;8.60;73.30;;;;;;4982847;28;20652;-74
2022/02/23 12:18:59;;;;;;;1.63;1.53;;;8.60;73.00;;;;;;4980653;28;20189;-74
2022/02/23 12:21:47;;;;;;;1.80;1.70;;;8.60;73.20;;;;;;4978606;28;20376;-74
2022/02/23 12:24:18;;;;;;;2.00;1.90;;;8.60;72.80;;;;;;4980261;28;20268;-74
2022/02/23 12:26:45;;;;;;;2.07;1.90;;;8.50;72.90;;;;;;4980520;28;20216;-74
2022/02/23 12:29:15;;;;;;;1.80;1.80;;;8.40;72.60;;;;;;4979942;28;20891;-73
2022/02/23 12:31:44;;;;;;;2.23;1.97;;;8.30;73.00;;;;;;4981074;28;20209;-75
2022/02/23 12:34:18;;;;;;;1.77;1.63;;;8.30;73.30;;;;;;4980730;28;20201;-75
2022/02/23 12:36:55;;;;;;;3.97;1.57;;;8.20;72.80;;;;;;4978117;28;20268;-75
2022/02/23 12:39:23;;;;;;;1.60;1.50;;;8.10;73.10;;;;;;4978699;28;20193;-75
2022/02/23 12:41:52;;;;;;;1.60;1.50;;;8.00;73.40;;;;;;4980730;28;20197;-75
2022/02/23 12:44:23;;;;;;;1.27;1.27;;;8.00;73.50;;;;;;4979913;28;20186;-74
2022/02/23 12:46:57;;;;;;;1.73;1.60;;;7.90;73.70;;;;;;4978934;28;20201;-75
2022/02/23 12:49:23;;;;;;;3.27;1.87;;;8.10;74.00;;;;;;5000915;28;20181;-75
2022/02/23 12:51:50;;;;;;;2.10;2.00;;;8.20;73.90;;;;;;4993106;28;20679;-75
2022/02/23 12:54:21;;;;;;;2.27;1.57;;;8.30;73.40;;;;;;4990658;28;20186;-75
2022/02/23 12:56:49;;;;;;;1.80;1.60;;;8.30;72.80;;;;;;4991474;28;20656;-75
2022/02/23 12:59:16;;;;;;;0.93;0.93;;;8.20;72.90;;;;;;4998467;28;20192;-76
2022/02/23 13:01:53;;;;;;;1.50;1.40;;;8.20;72.80;;;;;;4997224;28;20193;-75
2022/02/23 13:04:21;;;;;;;1.13;0.90;;;8.20;73.00;;;;;;4989892;28;20659;-74